Clearview, Oklahoma
Current Conditions -  °F | °C
As of 6:15 PM on Tuesday 25 Nov 2014 (Local Time) from KOKM Reporting Station
Clear Clear  
Wind Chill: 41°   Ceiling: Unl
Heat Index: 41°   Visibility: 10mi
Dew Point: 28°   Wind: 3mph
Humidity: 60%   Direction: 140°SE
Pressure: 30.12"   Gusts: NA
Location:  35.3761°N, 96.1179°W
Report Text: KOKM 260015Z AUTO 14003KT 10SM CLR 05/M02 A3012 RMK AO2 T00501022
Loading
Personal Weather Stations






























Interactive Weather Map New forecast layout! Learn more

10-Day Weather Forecast

Advertisements
Track Severe Weather on mobile